sensor_id;sensor_type;location;lat;lon;timestamp;temperature;humidity
32187;DHT22;18686;53.084;8.872;2022-09-02T00:01:36;12.80;97.90
32187;DHT22;18686;53.084;8.872;2022-09-02T00:04:07;12.70;98.00
32187;DHT22;18686;53.084;8.872;2022-09-02T00:06:36;12.70;98.30
32187;DHT22;18686;53.084;8.872;2022-09-02T00:09:06;12.70;98.60
32187;DHT22;18686;53.084;8.872;2022-09-02T00:11:37;12.60;98.80
32187;DHT22;18686;53.084;8.872;2022-09-02T00:14:07;12.60;99.10
32187;DHT22;18686;53.084;8.872;2022-09-02T00:16:37;12.50;99.50
32187;DHT22;18686;53.084;8.872;2022-09-02T00:19:06;12.50;99.50
32187;DHT22;18686;53.084;8.872;2022-09-02T00:21:35;12.40;99.60
32187;DHT22;18686;53.084;8.872;2022-09-02T00:24:04;12.40;99.70
32187;DHT22;18686;53.084;8.872;2022-09-02T00:26:33;12.40;99.90
32187;DHT22;18686;53.084;8.872;2022-09-02T00:29:03;12.40;99.90
32187;DHT22;18686;53.084;8.872;2022-09-02T00:31:32;12.40;99.90
32187;DHT22;18686;53.084;8.872;2022-09-02T00:34:03;12.40;99.90
32187;DHT22;18686;53.084;8.872;2022-09-02T00:36:32;12.30;99.90
32187;DHT22;18686;53.084;8.872;2022-09-02T00:39:00;12.30;99.90
32187;DHT22;18686;53.084;8.872;2022-09-02T00:41:29;12.30;99.90
32187;DHT22;18686;53.084;8.872;2022-09-02T00:44:01;12.20;99.90
32187;DHT22;18686;53.084;8.872;2022-09-02T00:46:32;12.20;99.90
32187;DHT22;18686;53.084;8.872;2022-09-02T00:49:04;12.20;99.90
32187;DHT22;18686;53.084;8.872;2022-09-02T00:51:38;12.10;99.90
32187;DHT22;18686;53.084;8.872;2022-09-02T00:54:07;12.10;99.90
32187;DHT22;18686;53.084;8.872;2022-09-02T00:56:39;12.10;99.90
32187;DHT22;18686;53.084;8.872;2022-09-02T00:59:08;12.00;99.90
32187;DHT22;18686;53.084;8.872;2022-09-02T01:01:38;12.00;99.90
32187;DHT22;18686;53.084;8.872;2022-09-02T01:04:06;12.00;99.90
32187;DHT22;18686;53.084;8.872;2022-09-02T01:06:34;11.90;99.90
32187;DHT22;18686;53.084;8.872;2022-09-02T01:09:10;11.90;99.90
32187;DHT22;18686;53.084;8.872;2022-09-02T01:11:41;11.90;99.90
32187;DHT22;18686;53.084;8.872;2022-09-02T01:14:10;11.90;99.90
32187;DHT22;18686;53.084;8.872;2022-09-02T01:16:44;11.90;99.90
32187;DHT22;18686;53.084;8.872;2022-09-02T01:19:19;11.80;99.90
32187;DHT22;18686;53.084;8.872;2022-09-02T01:21:51;11.80;99.90
32187;DHT22;18686;53.084;8.872;2022-09-02T01:24:22;11.80;99.90
32187;DHT22;18686;53.084;8.872;2022-09-02T01:26:53;11.70;99.90
32187;DHT22;18686;53.084;8.872;2022-09-02T01:29:25;11.70;99.90
32187;DHT22;18686;53.084;8.872;2022-09-02T01:31:54;11.70;99.90
32187;DHT22;18686;53.084;8.872;2022-09-02T01:34:22;11.60;99.90
32187;DHT22;18686;53.084;8.872;2022-09-02T01:36:53;11.60;99.90
32187;DHT22;18686;53.084;8.872;2022-09-02T01:39:21;11.60;99.90
32187;DHT22;18686;53.084;8.872;2022-09-02T01:41:49;11.60;99.90
32187;DHT22;18686;53.084;8.872;2022-09-02T01:44:18;11.50;99.90
32187;DHT22;18686;53.084;8.872;2022-09-02T01:47:16;11.60;99.90
32187;DHT22;18686;53.084;8.872;2022-09-02T01:49:46;11.60;99.90
32187;DHT22;18686;53.084;8.872;2022-09-02T01:52:17;11.50;99.90
32187;DHT22;18686;53.084;8.872;2022-09-02T01:54:46;11.50;99.90
32187;DHT22;18686;53.084;8.872;2022-09-02T01:57:14;11.50;99.90
32187;DHT22;18686;53.084;8.872;2022-09-02T01:59:44;11.60;99.90
32187;DHT22;18686;53.084;8.872;2022-09-02T02:02:15;11.50;99.90
32187;DHT22;18686;53.084;8.872;2022-09-02T02:04:47;11.50;99.90
32187;DHT22;18686;53.084;8.872;2022-09-02T02:07:18;11.50;99.90
32187;DHT22;18686;53.084;8.872;2022-09-02T02:09:48;11.50;99.90
32187;DHT22;18686;53.084;8.872;2022-09-02T02:12:17;11.50;99.90
32187;DHT22;18686;53.084;8.872;2022-09-02T02:14:46;11.60;99.90
32187;DHT22;18686;53.084;8.872;2022-09-02T02:17:15;11.60;99.90
32187;DHT22;18686;53.084;8.872;2022-09-02T02:19:43;11.50;99.90
32187;DHT22;18686;53.084;8.872;2022-09-02T02:22:11;11.50;99.90
32187;DHT22;18686;53.084;8.872;2022-09-02T02:24:41;11.50;99.90
32187;DHT22;18686;53.084;8.872;2022-09-02T02:27:09;11.50;99.90
32187;DHT22;18686;53.084;8.872;2022-09-02T02:29:38;11.50;99.90
32187;DHT22;18686;53.084;8.872;2022-09-02T02:32:06;11.50;99.90
32187;DHT22;18686;53.084;8.872;2022-09-02T02:34:35;11.50;99.90
32187;DHT22;18686;53.084;8.872;2022-09-02T02:37:04;11.50;99.90
32187;DHT22;18686;53.084;8.872;2022-09-02T02:39:33;11.50;99.90
32187;DHT22;18686;53.084;8.872;2022-09-02T02:42:03;11.40;99.90
32187;DHT22;18686;53.084;8.872;2022-09-02T02:44:32;11.40;99.90
32187;DHT22;18686;53.084;8.872;2022-09-02T02:47:00;11.40;99.90
32187;DHT22;18686;53.084;8.872;2022-09-02T02:49:29;11.40;99.90
32187;DHT22;18686;53.084;8.872;2022-09-02T02:51:57;11.40;99.90
32187;DHT22;18686;53.084;8.872;2022-09-02T02:54:26;11.40;99.90
32187;DHT22;18686;53.084;8.872;2022-09-02T02:57:05;11.30;99.90
32187;DHT22;18686;53.084;8.872;2022-09-02T02:59:34;11.30;99.90
32187;DHT22;18686;53.084;8.872;2022-09-02T03:02:04;11.30;99.90
32187;DHT22;18686;53.084;8.872;2022-09-02T03:04:34;11.30;99.90
32187;DHT22;18686;53.084;8.872;2022-09-02T03:07:03;11.30;99.90
32187;DHT22;18686;53.084;8.872;2022-09-02T03:09:33;11.20;99.90
32187;DHT22;18686;53.084;8.872;2022-09-02T03:12:04;11.20;99.90
32187;DHT22;18686;53.084;8.872;2022-09-02T03:14:34;11.20;99.90
32187;DHT22;18686;53.084;8.872;2022-09-02T03:17:04;11.20;99.90
32187;DHT22;18686;53.084;8.872;2022-09-02T03:19:32;11.20;99.90
32187;DHT22;18686;53.084;8.872;2022-09-02T03:22:01;11.20;99.90
32187;DHT22;18686;53.084;8.872;2022-09-02T03:24:29;11.20;99.90
32187;DHT22;18686;53.084;8.872;2022-09-02T03:26:58;11.10;99.90
32187;DHT22;18686;53.084;8.872;2022-09-02T03:29:28;11.10;99.90
32187;DHT22;18686;53.084;8.872;2022-09-02T03:31:57;11.00;99.90
32187;DHT22;18686;53.084;8.872;2022-09-02T03:34:30;11.00;99.90
32187;DHT22;18686;53.084;8.872;2022-09-02T03:36:58;10.90;99.90
32187;DHT22;18686;53.084;8.872;2022-09-02T03:39:26;10.90;99.90
32187;DHT22;18686;53.084;8.872;2022-09-02T03:41:54;10.90;99.90
32187;DHT22;18686;53.084;8.872;2022-09-02T03:44:23;10.80;99.90
32187;DHT22;18686;53.084;8.872;2022-09-02T03:46:53;10.80;99.90
32187;DHT22;18686;53.084;8.872;2022-09-02T03:49:21;10.70;99.90
32187;DHT22;18686;53.084;8.872;2022-09-02T03:51:50;10.70;99.90
32187;DHT22;18686;53.084;8.872;2022-09-02T03:54:18;10.70;99.90
32187;DHT22;18686;53.084;8.872;2022-09-02T03:56:47;10.60;99.90
32187;DHT22;18686;53.084;8.872;2022-09-02T03:59:17;10.60;99.90
32187;DHT22;18686;53.084;8.872;2022-09-02T04:01:45;10.60;99.90
32187;DHT22;18686;53.084;8.872;2022-09-02T04:04:15;10.60;99.90
32187;DHT22;18686;53.084;8.872;2022-09-02T04:06:50;10.50;99.90
32187;DHT22;18686;53.084;8.872;2022-09-02T04:09:19;10.50;99.90
32187;DHT22;18686;53.084;8.872;2022-09-02T04:11:48;10.50;99.90
32187;DHT22;18686;53.084;8.872;2022-09-02T04:14:17;10.40;99.90
32187;DHT22;18686;53.084;8.872;2022-09-02T04:16:46;10.50;99.90
32187;DHT22;18686;53.084;8.872;2022-09-02T04:19:15;10.50;99.90
32187;DHT22;18686;53.084;8.872;2022-09-02T04:21:44;10.60;99.90
32187;DHT22;18686;53.084;8.872;2022-09-02T04:24:13;10.60;99.90
32187;DHT22;18686;53.084;8.872;2022-09-02T04:26:45;10.60;99.90
32187;DHT22;18686;53.084;8.872;2022-09-02T04:29:16;10.60;99.90
32187;DHT22;18686;53.084;8.872;2022-09-02T04:31:47;10.60;99.90
32187;DHT22;18686;53.084;8.872;2022-09-02T04:34:17;10.60;99.90
32187;DHT22;18686;53.084;8.872;2022-09-02T04:36:48;10.60;99.90
32187;DHT22;18686;53.084;8.872;2022-09-02T04:39:17;10.50;99.90
32187;DHT22;18686;53.084;8.872;2022-09-02T04:41:48;10.50;99.90
32187;DHT22;18686;53.084;8.872;2022-09-02T04:44:16;10.50;99.90
32187;DHT22;18686;53.084;8.872;2022-09-02T04:46:46;10.50;99.90
32187;DHT22;18686;53.084;8.872;2022-09-02T04:49:21;10.50;99.90
32187;DHT22;18686;53.084;8.872;2022-09-02T04:51:52;10.40;99.90
32187;DHT22;18686;53.084;8.872;2022-09-02T04:54:22;10.40;99.90
32187;DHT22;18686;53.084;8.872;2022-09-02T04:56:51;10.40;99.90
32187;DHT22;18686;53.084;8.872;2022-09-02T04:59:22;10.40;99.90
32187;DHT22;18686;53.084;8.872;2022-09-02T05:02:03;10.40;99.90
32187;DHT22;18686;53.084;8.872;2022-09-02T05:04:35;10.40;99.90
32187;DHT22;18686;53.084;8.872;2022-09-02T05:07:09;10.40;99.90
32187;DHT22;18686;53.084;8.872;2022-09-02T05:09:43;10.40;99.90
32187;DHT22;18686;53.084;8.872;2022-09-02T05:12:12;10.50;99.90
32187;DHT22;18686;53.084;8.872;2022-09-02T05:14:49;10.50;99.90
32187;DHT22;18686;53.084;8.872;2022-09-02T05:17:19;10.60;99.90
32187;DHT22;18686;53.084;8.872;2022-09-02T05:19:49;10.70;99.90
32187;DHT22;18686;53.084;8.872;2022-09-02T05:22:19;10.70;99.90
32187;DHT22;18686;53.084;8.872;2022-09-02T05:24:47;10.80;99.90
32187;DHT22;18686;53.084;8.872;2022-09-02T05:27:16;10.90;99.90
32187;DHT22;18686;53.084;8.872;2022-09-02T05:29:45;11.00;99.90
32187;DHT22;18686;53.084;8.872;2022-09-02T05:32:17;11.10;99.90
32187;DHT22;18686;53.084;8.872;2022-09-02T05:34:49;11.10;99.90
32187;DHT22;18686;53.084;8.872;2022-09-02T05:37:17;11.30;99.90
32187;DHT22;18686;53.084;8.872;2022-09-02T05:39:47;11.40;99.90
32187;DHT22;18686;53.084;8.872;2022-09-02T05:42:16;11.40;99.90
32187;DHT22;18686;53.084;8.872;2022-09-02T05:44:48;11.50;99.90
32187;DHT22;18686;53.084;8.872;2022-09-02T05:47:20;11.60;99.90
32187;DHT22;18686;53.084;8.872;2022-09-02T05:49:50;11.80;99.90
32187;DHT22;18686;53.084;8.872;2022-09-02T05:52:38;11.90;99.90
32187;DHT22;18686;53.084;8.872;2022-09-02T05:55:08;12.00;99.90
32187;DHT22;18686;53.084;8.872;2022-09-02T05:57:38;12.10;99.90
32187;DHT22;18686;53.084;8.872;2022-09-02T06:00:09;12.30;99.90
32187;DHT22;18686;53.084;8.872;2022-09-02T06:02:55;12.50;99.90
32187;DHT22;18686;53.084;8.872;2022-09-02T06:05:37;12.70;99.90
32187;DHT22;18686;53.084;8.872;2022-09-02T06:08:17;12.90;99.90
32187;DHT22;18686;53.084;8.872;2022-09-02T06:10:46;13.10;99.90
32187;DHT22;18686;53.084;8.872;2022-09-02T06:13:18;13.40;99.90
32187;DHT22;18686;53.084;8.872;2022-09-02T06:15:50;13.60;99.90
32187;DHT22;18686;53.084;8.872;2022-09-02T06:18:23;13.90;99.90
32187;DHT22;18686;53.084;8.872;2022-09-02T06:20:55;14.10;99.90
32187;DHT22;18686;53.084;8.872;2022-09-02T06:23:29;14.40;99.90
32187;DHT22;18686;53.084;8.872;2022-09-02T06:26:00;14.90;99.90
32187;DHT22;18686;53.084;8.872;2022-09-02T06:28:29;15.40;99.90
32187;DHT22;18686;53.084;8.872;2022-09-02T06:30:59;15.70;98.10
32187;DHT22;18686;53.084;8.872;2022-09-02T06:33:27;15.80;97.00
32187;DHT22;18686;53.084;8.872;2022-09-02T06:35:58;15.80;96.10
32187;DHT22;18686;53.084;8.872;2022-09-02T06:38:26;15.80;95.40
32187;DHT22;18686;53.084;8.872;2022-09-02T06:40:55;15.80;95.00
32187;DHT22;18686;53.084;8.872;2022-09-02T06:43:34;15.70;94.80
32187;DHT22;18686;53.084;8.872;2022-09-02T06:46:16;15.70;95.00
32187;DHT22;18686;53.084;8.872;2022-09-02T06:48:47;15.80;95.10
32187;DHT22;18686;53.084;8.872;2022-09-02T06:51:21;15.90;95.00
32187;DHT22;18686;53.084;8.872;2022-09-02T06:53:52;16.30;94.40
32187;DHT22;18686;53.084;8.872;2022-09-02T06:56:24;17.10;94.90
32187;DHT22;18686;53.084;8.872;2022-09-02T06:58:53;18.80;91.60
32187;DHT22;18686;53.084;8.872;2022-09-02T07:01:33;20.50;83.00
32187;DHT22;18686;53.084;8.872;2022-09-02T07:04:03;21.80;71.90
32187;DHT22;18686;53.084;8.872;2022-09-02T07:06:53;22.60;66.90
32187;DHT22;18686;53.084;8.872;2022-09-02T07:09:27;23.70;59.30
32187;DHT22;18686;53.084;8.872;2022-09-02T07:12:03;25.30;54.70
32187;DHT22;18686;53.084;8.872;2022-09-02T07:14:37;27.40;50.30
32187;DHT22;18686;53.084;8.872;2022-09-02T07:17:07;29.40;45.40
32187;DHT22;18686;53.084;8.872;2022-09-02T07:19:36;31.30;40.90
32187;DHT22;18686;53.084;8.872;2022-09-02T07:22:06;32.80;38.60
32187;DHT22;18686;53.084;8.872;2022-09-02T07:24:40;34.30;35.50
32187;DHT22;18686;53.084;8.872;2022-09-02T07:27:09;35.60;33.70
32187;DHT22;18686;53.084;8.872;2022-09-02T07:29:38;36.70;32.60
32187;DHT22;18686;53.084;8.872;2022-09-02T07:32:07;37.70;31.00
32187;DHT22;18686;53.084;8.872;2022-09-02T07:34:35;38.70;29.50
32187;DHT22;18686;53.084;8.872;2022-09-02T07:37:05;39.50;29.00
32187;DHT22;18686;53.084;8.872;2022-09-02T07:39:39;40.10;28.20
32187;DHT22;18686;53.084;8.872;2022-09-02T07:42:08;40.90;28.10
32187;DHT22;18686;53.084;8.872;2022-09-02T07:44:36;41.60;27.30
32187;DHT22;18686;53.084;8.872;2022-09-02T07:47:06;42.20;26.40
32187;DHT22;18686;53.084;8.872;2022-09-02T07:49:38;42.60;26.60
32187;DHT22;18686;53.084;8.872;2022-09-02T07:52:28;43.10;25.40
32187;DHT22;18686;53.084;8.872;2022-09-02T07:54:56;43.30;25.80
32187;DHT22;18686;53.084;8.872;2022-09-02T07:57:24;43.50;25.70
32187;DHT22;18686;53.084;8.872;2022-09-02T07:59:54;43.90;25.40
32187;DHT22;18686;53.084;8.872;2022-09-02T08:02:22;44.40;25.30
32187;DHT22;18686;53.084;8.872;2022-09-02T08:04:51;44.90;24.70
32187;DHT22;18686;53.084;8.872;2022-09-02T08:07:20;45.20;24.50
32187;DHT22;18686;53.084;8.872;2022-09-02T08:09:51;45.20;24.60
32187;DHT22;18686;53.084;8.872;2022-09-02T08:12:20;44.90;24.70
32187;DHT22;18686;53.084;8.872;2022-09-02T08:14:48;45.00;24.90
32187;DHT22;18686;53.084;8.872;2022-09-02T08:17:17;45.20;24.40
32187;DHT22;18686;53.084;8.872;2022-09-02T08:19:45;45.40;24.40
32187;DHT22;18686;53.084;8.872;2022-09-02T08:22:13;45.20;24.50
32187;DHT22;18686;53.084;8.872;2022-09-02T08:24:41;45.00;24.50
32187;DHT22;18686;53.084;8.872;2022-09-02T08:27:11;44.80;24.40
32187;DHT22;18686;53.084;8.872;2022-09-02T08:29:39;44.60;24.40
32187;DHT22;18686;53.084;8.872;2022-09-02T08:32:07;44.00;24.50
32187;DHT22;18686;53.084;8.872;2022-09-02T08:34:35;43.40;24.70
32187;DHT22;18686;53.084;8.872;2022-09-02T08:37:05;42.70;25.10
32187;DHT22;18686;53.084;8.872;2022-09-02T08:39:34;41.50;25.30
32187;DHT22;18686;53.084;8.872;2022-09-02T08:42:08;40.60;26.10
32187;DHT22;18686;53.084;8.872;2022-09-02T08:44:44;39.00;26.10
32187;DHT22;18686;53.084;8.872;2022-09-02T08:47:18;38.60;27.20
32187;DHT22;18686;53.084;8.872;2022-09-02T08:49:51;39.00;27.00
32187;DHT22;18686;53.084;8.872;2022-09-02T08:52:25;39.30;26.90
32187;DHT22;18686;53.084;8.872;2022-09-02T08:54:55;40.90;26.40
32187;DHT22;18686;53.084;8.872;2022-09-02T08:57:24;42.60;25.50
32187;DHT22;18686;53.084;8.872;2022-09-02T08:59:56;44.30;24.90
32187;DHT22;18686;53.084;8.872;2022-09-02T09:02:33;45.60;24.40
32187;DHT22;18686;53.084;8.872;2022-09-02T09:05:21;46.80;23.70
32187;DHT22;18686;53.084;8.872;2022-09-02T09:08:06;47.20;23.40
32187;DHT22;18686;53.084;8.872;2022-09-02T09:10:48;46.30;23.30
32187;DHT22;18686;53.084;8.872;2022-09-02T09:13:42;46.90;23.80
32187;DHT22;18686;53.084;8.872;2022-09-02T09:16:26;48.00;23.70
32187;DHT22;18686;53.084;8.872;2022-09-02T09:19:02;49.40;23.40
32187;DHT22;18686;53.084;8.872;2022-09-02T09:21:35;50.10;22.90
32187;DHT22;18686;53.084;8.872;2022-09-02T09:24:07;50.40;22.70
32187;DHT22;18686;53.084;8.872;2022-09-02T09:26:38;50.70;22.30
32187;DHT22;18686;53.084;8.872;2022-09-02T09:29:08;51.20;22.20
32187;DHT22;18686;53.084;8.872;2022-09-02T09:31:38;51.20;22.10
32187;DHT22;18686;53.084;8.872;2022-09-02T09:34:09;50.80;22.00
32187;DHT22;18686;53.084;8.872;2022-09-02T09:36:52;50.80;22.20
32187;DHT22;18686;53.084;8.872;2022-09-02T09:39:24;50.20;22.00
32187;DHT22;18686;53.084;8.872;2022-09-02T09:41:54;50.00;22.00
32187;DHT22;18686;53.084;8.872;2022-09-02T09:44:40;50.30;22.30
32187;DHT22;18686;53.084;8.872;2022-09-02T09:47:16;50.10;22.10
32187;DHT22;18686;53.084;8.872;2022-09-02T09:49:48;50.20;21.80
32187;DHT22;18686;53.084;8.872;2022-09-02T09:52:27;50.00;22.00
32187;DHT22;18686;53.084;8.872;2022-09-02T09:55:09;50.70;21.90
32187;DHT22;18686;53.084;8.872;2022-09-02T09:57:40;51.80;21.70
32187;DHT22;18686;53.084;8.872;2022-09-02T10:00:26;51.70;21.60
32187;DHT22;18686;53.084;8.872;2022-09-02T10:02:59;51.40;21.90
32187;DHT22;18686;53.084;8.872;2022-09-02T10:05:31;50.70;21.40
32187;DHT22;18686;53.084;8.872;2022-09-02T10:08:00;51.00;21.50
32187;DHT22;18686;53.084;8.872;2022-09-02T10:10:29;51.30;21.30
32187;DHT22;18686;53.084;8.872;2022-09-02T10:13:01;50.40;21.00
32187;DHT22;18686;53.084;8.872;2022-09-02T10:15:59;49.70;21.70
32187;DHT22;18686;53.084;8.872;2022-09-02T10:18:34;50.10;21.20
32187;DHT22;18686;53.084;8.872;2022-09-02T10:21:13;49.50;21.20
32187;DHT22;18686;53.084;8.872;2022-09-02T10:23:52;49.20;21.60
32187;DHT22;18686;53.084;8.872;2022-09-02T10:26:26;48.20;21.50
32187;DHT22;18686;53.084;8.872;2022-09-02T10:29:06;47.20;21.90
32187;DHT22;18686;53.084;8.872;2022-09-02T10:31:45;46.90;21.90
32187;DHT22;18686;53.084;8.872;2022-09-02T10:34:23;47.00;22.10
32187;DHT22;18686;53.084;8.872;2022-09-02T10:37:10;45.90;21.70
32187;DHT22;18686;53.084;8.872;2022-09-02T10:40:10;45.70;22.30
32187;DHT22;18686;53.084;8.872;2022-09-02T10:42:55;46.50;22.00
32187;DHT22;18686;53.084;8.872;2022-09-02T10:45:30;47.60;21.80
32187;DHT22;18686;53.084;8.872;2022-09-02T10:48:20;47.80;21.30
32187;DHT22;18686;53.084;8.872;2022-09-02T10:50:56;47.60;21.30
32187;DHT22;18686;53.084;8.872;2022-09-02T10:53:49;47.40;21.30
32187;DHT22;18686;53.084;8.872;2022-09-02T10:56:19;45.80;21.50
32187;DHT22;18686;53.084;8.872;2022-09-02T10:58:53;43.70;21.80
32187;DHT22;18686;53.084;8.872;2022-09-02T11:01:25;42.60;22.30
32187;DHT22;18686;53.084;8.872;2022-09-02T11:04:04;41.60;22.00
32187;DHT22;18686;53.084;8.872;2022-09-02T11:06:39;41.40;22.50
32187;DHT22;18686;53.084;8.872;2022-09-02T11:09:32;42.00;22.40
32187;DHT22;18686;53.084;8.872;2022-09-02T11:12:06;41.60;22.40
32187;DHT22;18686;53.084;8.872;2022-09-02T11:14:49;41.00;22.60
32187;DHT22;18686;53.084;8.872;2022-09-02T11:17:22;41.60;23.10
32187;DHT22;18686;53.084;8.872;2022-09-02T11:19:56;42.20;22.90
32187;DHT22;18686;53.084;8.872;2022-09-02T11:22:33;42.90;22.60
32187;DHT22;18686;53.084;8.872;2022-09-02T11:25:07;42.90;22.60
32187;DHT22;18686;53.084;8.872;2022-09-02T11:27:40;42.60;22.50
32187;DHT22;18686;53.084;8.872;2022-09-02T11:30:14;42.60;22.60
32187;DHT22;18686;53.084;8.872;2022-09-02T11:32:49;43.10;22.30
32187;DHT22;18686;53.084;8.872;2022-09-02T11:35:23;42.90;22.20
32187;DHT22;18686;53.084;8.872;2022-09-02T11:37:59;43.30;21.90
32187;DHT22;18686;53.084;8.872;2022-09-02T11:40:32;43.20;21.90
32187;DHT22;18686;53.084;8.872;2022-09-02T11:43:22;43.30;22.20
32187;DHT22;18686;53.084;8.872;2022-09-02T11:46:12;43.80;22.30
32187;DHT22;18686;53.084;8.872;2022-09-02T11:51:53;43.80;21.30
32187;DHT22;18686;53.084;8.872;2022-09-02T11:54:33;43.10;22.00
32187;DHT22;18686;53.084;8.872;2022-09-02T11:57:04;43.10;21.90
32187;DHT22;18686;53.084;8.872;2022-09-02T12:00:05;42.70;22.30
32187;DHT22;18686;53.084;8.872;2022-09-02T12:02:43;43.50;22.70
32187;DHT22;18686;53.084;8.872;2022-09-02T12:08:10;43.90;21.90
32187;DHT22;18686;53.084;8.872;2022-09-02T12:11:01;43.30;21.80
32187;DHT22;18686;53.084;8.872;2022-09-02T12:13:33;41.30;22.40
32187;DHT22;18686;53.084;8.872;2022-09-02T12:16:34;39.10;23.20
32187;DHT22;18686;53.084;8.872;2022-09-02T12:19:26;36.40;24.40
32187;DHT22;18686;53.084;8.872;2022-09-02T12:22:32;37.30;24.60
32187;DHT22;18686;53.084;8.872;2022-09-02T12:25:36;37.80;23.80
32187;DHT22;18686;53.084;8.872;2022-09-02T12:28:23;37.10;24.20
32187;DHT22;18686;53.084;8.872;2022-09-02T12:31:16;37.50;24.20
32187;DHT22;18686;53.084;8.872;2022-09-02T12:37:07;37.80;24.20
32187;DHT22;18686;53.084;8.872;2022-09-02T12:39:54;39.30;23.50
32187;DHT22;18686;53.084;8.872;2022-09-02T12:42:28;39.90;23.10
32187;DHT22;18686;53.084;8.872;2022-09-02T12:45:07;38.50;23.60
32187;DHT22;18686;53.084;8.872;2022-09-02T12:47:48;38.60;23.70
32187;DHT22;18686;53.084;8.872;2022-09-02T12:50:25;38.30;23.90
32187;DHT22;18686;53.084;8.872;2022-09-02T12:53:10;39.00;23.70
32187;DHT22;18686;53.084;8.872;2022-09-02T12:55:53;40.00;23.70
32187;DHT22;18686;53.084;8.872;2022-09-02T12:58:45;40.20;23.20
32187;DHT22;18686;53.084;8.872;2022-09-02T13:01:20;39.80;23.40
32187;DHT22;18686;53.084;8.872;2022-09-02T13:04:24;39.40;23.30
32187;DHT22;18686;53.084;8.872;2022-09-02T13:07:20;38.70;23.80
32187;DHT22;18686;53.084;8.872;2022-09-02T13:13:25;39.00;23.60
32187;DHT22;18686;53.084;8.872;2022-09-02T13:16:13;39.20;23.40
32187;DHT22;18686;53.084;8.872;2022-09-02T13:19:13;38.80;23.70
32187;DHT22;18686;53.084;8.872;2022-09-02T13:25:02;37.60;24.20
32187;DHT22;18686;53.084;8.872;2022-09-02T13:28:02;36.90;24.80
32187;DHT22;18686;53.084;8.872;2022-09-02T13:30:50;35.50;25.60
32187;DHT22;18686;53.084;8.872;2022-09-02T13:33:19;34.70;26.20
32187;DHT22;18686;53.084;8.872;2022-09-02T13:35:54;33.20;26.40
32187;DHT22;18686;53.084;8.872;2022-09-02T13:38:26;32.50;27.20
32187;DHT22;18686;53.084;8.872;2022-09-02T13:40:55;32.00;27.70
32187;DHT22;18686;53.084;8.872;2022-09-02T13:43:24;31.40;27.80
32187;DHT22;18686;53.084;8.872;2022-09-02T13:45:57;31.10;28.60
32187;DHT22;18686;53.084;8.872;2022-09-02T13:48:27;30.60;28.60
32187;DHT22;18686;53.084;8.872;2022-09-02T13:51:08;30.50;28.50
32187;DHT22;18686;53.084;8.872;2022-09-02T13:53:40;30.50;29.10
32187;DHT22;18686;53.084;8.872;2022-09-02T13:56:29;30.50;28.50
32187;DHT22;18686;53.084;8.872;2022-09-02T13:58:57;30.30;28.80
32187;DHT22;18686;53.084;8.872;2022-09-02T14:01:28;30.10;29.00
32187;DHT22;18686;53.084;8.872;2022-09-02T14:03:59;29.80;29.40
32187;DHT22;18686;53.084;8.872;2022-09-02T14:06:38;29.60;29.40
32187;DHT22;18686;53.084;8.872;2022-09-02T14:09:19;29.30;30.00
32187;DHT22;18686;53.084;8.872;2022-09-02T14:11:49;29.20;30.20
32187;DHT22;18686;53.084;8.872;2022-09-02T14:14:22;29.30;29.80
32187;DHT22;18686;53.084;8.872;2022-09-02T14:16:51;29.30;29.80
32187;DHT22;18686;53.084;8.872;2022-09-02T14:19:23;29.20;29.90
32187;DHT22;18686;53.084;8.872;2022-09-02T14:21:54;29.00;30.10
32187;DHT22;18686;53.084;8.872;2022-09-02T14:24:25;28.70;30.00
32187;DHT22;18686;53.084;8.872;2022-09-02T14:26:56;28.20;30.50
32187;DHT22;18686;53.084;8.872;2022-09-02T14:29:28;27.60;31.20
32187;DHT22;18686;53.084;8.872;2022-09-02T14:32:13;27.30;31.70
32187;DHT22;18686;53.084;8.872;2022-09-02T14:34:43;27.20;31.60
32187;DHT22;18686;53.084;8.872;2022-09-02T14:37:20;27.30;32.10
32187;DHT22;18686;53.084;8.872;2022-09-02T14:40:01;27.50;32.20
32187;DHT22;18686;53.084;8.872;2022-09-02T14:42:31;27.50;32.10
32187;DHT22;18686;53.084;8.872;2022-09-02T14:45:00;27.50;32.20
32187;DHT22;18686;53.084;8.872;2022-09-02T14:47:35;27.40;31.90
32187;DHT22;18686;53.084;8.872;2022-09-02T14:50:09;27.20;32.20
32187;DHT22;18686;53.084;8.872;2022-09-02T14:52:45;27.00;32.20
32187;DHT22;18686;53.084;8.872;2022-09-02T14:55:41;26.90;32.60
32187;DHT22;18686;53.084;8.872;2022-09-02T14:58:10;26.80;32.70
32187;DHT22;18686;53.084;8.872;2022-09-02T15:00:39;26.70;32.60
32187;DHT22;18686;53.084;8.872;2022-09-02T15:03:13;26.30;32.70
32187;DHT22;18686;53.084;8.872;2022-09-02T15:05:42;26.00;33.10
32187;DHT22;18686;53.084;8.872;2022-09-02T15:08:12;25.70;33.90
32187;DHT22;18686;53.084;8.872;2022-09-02T15:10:41;25.50;34.30
32187;DHT22;18686;53.084;8.872;2022-09-02T15:13:12;25.30;34.60
32187;DHT22;18686;53.084;8.872;2022-09-02T15:15:41;25.20;34.90
32187;DHT22;18686;53.084;8.872;2022-09-02T15:18:12;25.20;34.90
32187;DHT22;18686;53.084;8.872;2022-09-02T15:20:41;25.30;35.00
32187;DHT22;18686;53.084;8.872;2022-09-02T15:23:11;25.40;34.60
32187;DHT22;18686;53.084;8.872;2022-09-02T15:25:39;25.50;34.90
32187;DHT22;18686;53.084;8.872;2022-09-02T15:28:07;25.70;34.40
32187;DHT22;18686;53.084;8.872;2022-09-02T15:30:36;25.70;34.70
32187;DHT22;18686;53.084;8.872;2022-09-02T15:33:07;25.50;34.40
32187;DHT22;18686;53.084;8.872;2022-09-02T15:35:42;25.30;34.60
32187;DHT22;18686;53.084;8.872;2022-09-02T15:38:13;25.00;35.20
32187;DHT22;18686;53.084;8.872;2022-09-02T15:40:42;24.80;35.20
32187;DHT22;18686;53.084;8.872;2022-09-02T15:43:11;24.70;35.10
32187;DHT22;18686;53.084;8.872;2022-09-02T15:45:44;24.60;35.50
32187;DHT22;18686;53.084;8.872;2022-09-02T15:48:13;24.50;35.60
32187;DHT22;18686;53.084;8.872;2022-09-02T15:50:41;24.30;35.70
32187;DHT22;18686;53.084;8.872;2022-09-02T15:53:14;24.30;35.80
32187;DHT22;18686;53.084;8.872;2022-09-02T15:55:43;24.10;36.00
32187;DHT22;18686;53.084;8.872;2022-09-02T15:58:11;24.00;36.00
32187;DHT22;18686;53.084;8.872;2022-09-02T16:00:39;24.00;36.10
32187;DHT22;18686;53.084;8.872;2022-09-02T16:03:10;23.90;36.60
32187;DHT22;18686;53.084;8.872;2022-09-02T16:05:38;23.90;36.70
32187;DHT22;18686;53.084;8.872;2022-09-02T16:08:09;23.90;36.90
32187;DHT22;18686;53.084;8.872;2022-09-02T16:10:38;23.90;36.30
32187;DHT22;18686;53.084;8.872;2022-09-02T16:13:07;23.90;36.30
32187;DHT22;18686;53.084;8.872;2022-09-02T16:15:35;23.80;36.50
32187;DHT22;18686;53.084;8.872;2022-09-02T16:18:04;23.80;36.80
32187;DHT22;18686;53.084;8.872;2022-09-02T16:20:32;23.70;36.80
32187;DHT22;18686;53.084;8.872;2022-09-02T16:23:00;23.60;37.90
32187;DHT22;18686;53.084;8.872;2022-09-02T16:25:28;23.50;37.50